Grain Valley, MO (64029)

03:05 PM CDT die 29o August, anno 2014 (GMT -0500)
Rosewood Hills | Change Station
CLOSE
Current Station
Personal Weather Stations
Location: Grain Valley, MO
Elevation: 850 ft
Nearby Weather Stations

Elev 850 ft 39.04 °N, 94.21 °W | Updated 8 seconds ago

Plerumque Nubila
Plerumque Nubila
83.9 °F
Feels Like 88 °F
N
1.1
Ventus Variabilis Ventus from Magis Auster quam Zephyrus
Gusts 5.4 mph

Hodie
High -- | Low -- °F
--% Chance of Precip.
Yesterday
High -- | Low -- °F
Precip. -- in
6:42 AM 7:51 PM
Waxing Crescent, 16% visible
Pressio 29.85 in
Visibilitas 10.0 milia passuum
Clouds Nubes Dispersae 1400 ft
Plerumque Nubila 8000 ft
Plerumque Nubila 9500 ft
Index Caloris 88 °F
Frigus in quo Ros apparet 70 °F
Umor 64%
Rainfall 0.09 in
Snow Depth Not available.
UV 5 out of 12
Pollen 7.20 out of 12
Ozone Good
PM2.5 Moderate
Flu Activity Not available.
METAR KLXT 291853Z AUTO 21010G18KT 10SM SCT014 BKN080 BKN095 24/21 A2987 RMK AO2 SLP107 T02390206

More Conditions Fewer Conditions

Pressio 29.85 in
Visibilitas 10.0 milia passuum
Clouds Nubes Dispersae 1400 ft
Plerumque Nubila 8000 ft
Plerumque Nubila 9500 ft
Index Caloris 88 °F
Frigus in quo Ros apparet 70 °F
Umor 64%
Rainfall 0.09 in
Snow Depth Not available.
UV 5 out of 12
Pollen 7.20 out of 12
Ozone Good
PM2.5 Moderate
Flu Activity Not available.
METAR KLXT 291853Z AUTO 21010G18KT 10SM SCT014 BKN080 BKN095 24/21 A2987 RMK AO2 SLP107 T02390206

More Conditions Fewer Conditions

10-Day Weather Forecast

Almanac

Astronomy

Aug. 29, 2014 Rise Set
Actual Time 6:42 AM CDT 7:51 PM CDT
Civil Twilight 6:15 AM CDT 8:19 PM CDT
Nautical Twilight 5:42 AM CDT 8:52 PM CDT
Astronomical Twilight 5:08 AM CDT 9:26 PM CDT
Moon 10:30 AM CDT 9:52 PM CDT
Length Of Visible Light 14h 03m
Length of Day
13h 08m
Tomorrow will be 2m 25s shorter.
Waxing Crescent, 16% of the Moon is Illuminated
Hodie
Waxing Crescent
Sep 2
First Quarter
Sep 8
Full
Sep 15
Last Quarter
Sep 24
New

Today's Extremes

State Highs State Lows

Community

WunderPhotos

Upload Photos

1,748,329 photos uploaded!

WunderBlogs® & News

By Dr. Jeff Masters
Director of Meteorology, Weather Underground
By Kari Strenfel
Meteorologist, Weather Underground
By Christopher C. Burt
Weather Historian, Weather Underground
August 29, 2014
August 29, 2014
August 29, 2014

Nearby

Air Quality

  Air Quality AQ Index Pollutant
Yesterday Moderate
PM2.5
Yesterday Moderate
OZONE
Current Moderate
PM2.5
Current Good
OZONE
Die Veneris Good
OZONE
Die Saturni Moderate
OZONE

Snow Depth

Station Depth Elevation
No new snow has been reported.

Earthquake Activity

City Distance Mag. Time & Date
No recent earthquake activity has been reported nearby.
Minimum magnitude displayed is 2.5.

Coastal Water Temperatures

Locus Calor
No Stations Reporting

Nearby Weather Stations